X  Zatvori METAR podaci zračne luke     LYNI Nis Airport
Temperatura
13°C Temperatura
10°C Točka rosišta
82% Vlaga



Vjetar
1 M/S
2 MPS
3 KM/S
2 Čvorovi



Tišina
S
Trenutna situacija

Djelimično oblačno Djelimično oblačno
Tlak zraka 1011.92 (hPa) - 29.88 (inHg)
Vidljivost 6.2 (milje) - 10 (km)
Zračna luka
Kôd zračne luke LYNI

Lokacija: Nis Airport
Udaljenost: 63 (km)

Metar:
LYNI 091000Z VRB02KT 9999 FEW043 13/10 Q1012 NOSIG

Vrijeme: 09-12-2022 11:00 CET